LGB weather

Long Beach /Daugherty Field/ Airport
Long Beach, California, United States

Public forecast

Using degrees Fahrenheit for public forecast. Weather courtesy of forecast.io.

Current aviation weather report (METAR) for Long Beach /Daugherty Field/ Airport

Retrieved 2019/10/21 02:53 UTC (46 minutes ago):

KLGB 210253Z 01004KT 10SM CLR 24/08 A2986 RMK AO2 SLP111 T02440083 53010

Aviation forecast (TAF) for Long Beach /Daugherty Field/ Airport

Forecast is more than 6 hours old.

Retrieved 2019/10/20 18:39 UTC (9 hours ago):

TAF KLGB 201736Z 2018/2118 00000KT P6SM SKC FM201900 19006KT P6SM SKC FM202100 29010KT P6SM SKC FM210400 VRB03KT P6SM SKC FM211600 07005KT P6SM SKC